Página principal
METAR-TAF:

METAR-TAF

Aeroportos :

Kunming, China

latitude: 25-01N, longitude: 102-41E, altura: 1892 m

Observação actual do tempo

O boletim foi feito há 52 minutos, às 22:00 UTC
Vento 6 kt de nor-nordeste
Temperatura 9°C
Humidade 100%
Pressão 1022 hPa
Visibilidade: 5000 m
Nuvens dispersasa uma altura de 500 ft
Nuvens dispersasa uma altura de 2300 ft
Encobertoa uma altura de 3000 ft
neblina

METAR: ZPPP 212200Z 03003MPS 5000 BR SCT005 SCT023 OVC030 09/09 Q1022 NOSIG

Hora: 06:52 (22:52 UTC)

Previsão

O boletim foi feito há 9 horas e 49 minutos, às 13:03 UTC
Previsão válida de 21 às 18 UTC a 22 às 18 UTC
Vento 10 kt de sudoeste
Visibilidade 10 km ou mais
Nuvens dispersasa uma altura de 2300 ft
Nuvens fragmentadasa uma altura de 4000 ft

TAF: ZPPP 211303Z 2118/2218 23005MPS 9999 SCT023 BKN040 TX18/2208Z TN05/2122Z

Observações e previsões do tempo de mais de 4000 aeroportos (mensagens METAR e TAF).

As estações disponíveis são os pontos amarelos e vermelhos sobre o mapa.

Mova o rato sobre o mapa para ver o nome da estação.

Depois clique no ponto para visualizar as observações e previsões meteorológicas.

Para alterar o mapa : clique nos botões verdes com uma cruz preta para aumentar o zoom; no botão verde com uma pitada de zoom; ou nas setas verdes para mapas adjacentes.


METAR-TAF: